Les Cayes, Haiti
Current Conditions -  °F | °C
As of 4:56 AM on Tuesday 27 Jan 2015 (Local Time) from MUGM Reporting Station
Scattered Clouds Scattered Clouds  
Wind Chill: 73°   Ceiling: Unl
Heat Index: 73°   Visibility: 6mi
Dew Point: 70°   Wind: 10mph
Humidity: 90%   Direction: 360°N
Pressure: 29.96"   Gusts: NA
Location:  18.2°N, 73.75°W
Report Text: MUGM 270956Z 36009KT 9999 FEW032 SCT100 23/21 A2996 RMK SLP147 T02280211
Loading
Personal Weather Stations






























Interactive Weather Map New forecast layout! Learn more

10-Day Weather Forecast

Advertisements
Track Severe Weather on mobile